KHSB

Details ICAO KHSB
Name HARRISBURG RALEIGH
Region United States
Timezone America/Chicago (UTC-6.0)
Plans Departing 0
Arriving 0
Stats Elevation 396 ft / 121 m (AMSL)
Location 37.810922° -88.549644°
Runways 2
Magnetic Variation 2.677° W
Sunrise 2017-12-17 13:05:19 UTC / 2017-12-17 07:05:19 Local
Sunset 2017-12-17 22:38:18 UTC / 2017-12-17 16:38:18 Local
Advertisement - Login to hide

Runways

ID Width Length Bearing (true) Bearing (mag) Surface Threshold Offset Overrun Length
06 75 ft / 23 m 5,024 ft / 1,531 m 63.09° 65.77° Asphalt 0 ft / 0 m 0 ft / 0 m
14 75 ft / 23 m 2,766 ft / 843 m 141.02° 143.70° Asphalt 0 ft / 0 m 0 ft / 0 m
24 75 ft / 23 m 5,024 ft / 1,531 m 243.10° 245.78° Asphalt 0 ft / 0 m 0 ft / 0 m
32 75 ft / 23 m 2,766 ft / 843 m 321.03° 323.71° Asphalt 0 ft / 0 m 0 ft / 0 m

Map

Weather


0- 5 10 15 20 25 30 35+ Temperature / ° C

Clouds and Precipitation
Forecast for 2017-12-18 06:00 UTC. Updated 15 minutes ago

Ground ~20,000 ft ~40,000 ft Winds

METAR

KHSB 180535Z AUTO 22003KT 5SM BR OVC005 07/07 A3012 RMK AO2 T00690066

TAF

Not found

Frequencies

Recorded 135.92 MHz AWOS 3
Unicom 122.80 MHz CTAF/UNICOM
Warning: Do not use this data for real-world aviation or navigation. No guarantee of current accuracy is given.